createdAt,value
2023-02-28T00:00:27.023Z,0.00
2023-02-28T00:01:27.600Z,0.00
2023-02-28T00:02:27.367Z,0.00
2023-02-28T00:03:27.530Z,0.00
2023-02-28T00:04:27.666Z,0.00
2023-02-28T00:05:27.848Z,0.00
2023-02-28T00:06:28.044Z,0.00
2023-02-28T00:07:28.220Z,0.00
2023-02-28T00:08:28.389Z,0.00
2023-02-28T00:09:28.539Z,0.00
2023-02-28T00:10:28.745Z,0.00
2023-02-28T00:11:29.182Z,0.00
2023-02-28T00:12:29.119Z,0.00
2023-02-28T00:13:29.308Z,0.00
2023-02-28T00:14:29.461Z,0.00
2023-02-28T00:15:29.633Z,0.00
2023-02-28T00:16:29.895Z,0.00
2023-02-28T00:17:30.022Z,0.00
2023-02-28T00:18:31.589Z,0.00
2023-02-28T00:19:30.353Z,0.00
2023-02-28T00:20:30.522Z,0.00
2023-02-28T00:21:31.042Z,0.00
2023-02-28T00:22:30.898Z,0.00
2023-02-28T00:23:31.044Z,0.00
2023-02-28T00:24:31.206Z,0.00
2023-02-28T00:25:31.366Z,0.00
2023-02-28T00:26:31.570Z,0.00
2023-02-28T00:27:31.723Z,0.00
2023-02-28T00:28:31.873Z,0.00
2023-02-28T00:29:32.051Z,0.00
2023-02-28T00:30:32.270Z,0.00
2023-02-28T00:31:32.399Z,0.00
2023-02-28T00:32:32.576Z,0.00
2023-02-28T00:33:32.726Z,0.00
2023-02-28T00:34:32.888Z,0.00
2023-02-28T00:35:33.121Z,0.00
2023-02-28T00:36:33.245Z,0.00
2023-02-28T00:37:33.453Z,0.00
2023-02-28T00:38:33.605Z,0.00
2023-02-28T00:39:33.756Z,0.00
2023-02-28T00:40:33.917Z,0.00
2023-02-28T00:41:34.107Z,0.00
2023-02-28T00:42:34.287Z,0.00
2023-02-28T00:43:34.460Z,0.00
2023-02-28T00:44:34.595Z,0.00
2023-02-28T00:45:34.775Z,0.00
2023-02-28T00:46:34.973Z,0.00
2023-02-28T00:47:35.160Z,0.00
2023-02-28T00:48:35.355Z,0.00
2023-02-28T00:49:35.475Z,0.00
2023-02-28T00:50:35.679Z,0.00
2023-02-28T00:51:35.856Z,0.00
2023-02-28T00:52:36.019Z,0.00
2023-02-28T00:53:36.215Z,0.00
2023-02-28T00:54:36.379Z,0.00
2023-02-28T00:55:36.517Z,0.00
2023-02-28T00:56:36.722Z,0.00
2023-02-28T00:57:36.926Z,0.00
2023-02-28T00:58:37.096Z,0.00
2023-02-28T00:59:37.227Z,0.00
2023-02-28T01:00:37.396Z,0.00
2023-02-28T01:01:37.640Z,0.00
2023-02-28T01:02:37.747Z,0.00
2023-02-28T01:03:37.932Z,0.00
2023-02-28T01:04:38.177Z,0.00
2023-02-28T01:05:38.253Z,0.00
2023-02-28T01:06:38.411Z,0.00
2023-02-28T01:07:38.600Z,0.00
2023-02-28T01:08:38.758Z,0.00
2023-02-28T01:09:38.942Z,0.00
2023-02-28T01:10:39.145Z,0.00
2023-02-28T01:11:39.300Z,0.00
2023-02-28T01:12:39.464Z,0.00
2023-02-28T01:13:39.608Z,0.00
2023-02-28T01:14:39.792Z,0.00
2023-02-28T01:15:40.031Z,0.00
2023-02-28T01:16:40.161Z,0.00
2023-02-28T01:17:40.309Z,0.00
2023-02-28T01:18:40.515Z,0.00
2023-02-28T01:19:40.654Z,0.00
2023-02-28T01:20:40.872Z,0.00
2023-02-28T01:21:41.025Z,0.00
2023-02-28T01:22:41.174Z,0.00
2023-02-28T01:23:41.357Z,0.00
2023-02-28T01:24:41.514Z,0.00
2023-02-28T01:25:41.727Z,0.00
2023-02-28T01:26:41.864Z,0.00
2023-02-28T01:27:42.015Z,0.00
2023-02-28T01:28:42.170Z,0.00
2023-02-28T01:29:42.350Z,0.00
2023-02-28T01:30:42.666Z,0.00
2023-02-28T01:31:42.714Z,0.00
2023-02-28T01:32:42.859Z,0.00
2023-02-28T01:33:43.042Z,0.00
2023-02-28T01:34:43.233Z,0.00
2023-02-28T01:35:43.438Z,0.00
2023-02-28T01:36:43.597Z,0.00
2023-02-28T01:37:43.750Z,0.00
2023-02-28T01:38:43.895Z,0.00
2023-02-28T01:39:44.054Z,0.00
2023-02-28T01:40:44.231Z,0.00
2023-02-28T01:41:44.394Z,0.00
2023-02-28T01:42:44.586Z,0.00
2023-02-28T01:43:44.759Z,0.00
2023-02-28T01:44:44.953Z,0.00
2023-02-28T01:45:45.167Z,0.00
2023-02-28T01:46:45.366Z,0.00
2023-02-28T01:47:45.489Z,0.00
2023-02-28T01:48:45.646Z,0.00
2023-02-28T01:49:45.793Z,0.00
2023-02-28T01:50:46.003Z,0.00
2023-02-28T01:51:46.156Z,0.00
2023-02-28T01:52:46.315Z,0.00
2023-02-28T01:53:46.469Z,0.00
2023-02-28T01:54:46.656Z,0.00
2023-02-28T01:55:46.845Z,0.00
2023-02-28T01:56:47.017Z,0.00
2023-02-28T01:57:47.202Z,0.00
2023-02-28T01:58:47.388Z,0.00
2023-02-28T01:59:47.585Z,0.00
2023-02-28T02:00:47.755Z,0.00
2023-02-28T02:01:47.939Z,0.00
2023-02-28T02:02:48.107Z,0.00
2023-02-28T02:03:48.275Z,0.00
2023-02-28T02:04:48.436Z,0.00
2023-02-28T02:05:48.837Z,0.00
2023-02-28T02:06:48.814Z,0.00
2023-02-28T02:07:48.947Z,0.00
2023-02-28T02:08:49.125Z,0.00
2023-02-28T02:09:49.326Z,0.00
2023-02-28T02:10:49.474Z,0.00
2023-02-28T02:11:49.629Z,0.00
2023-02-28T02:12:49.826Z,0.00
2023-02-28T02:13:50.014Z,0.00
2023-02-28T02:14:50.203Z,0.00
2023-02-28T02:15:50.382Z,0.00
2023-02-28T02:16:50.527Z,0.00
2023-02-28T02:17:50.677Z,0.00
2023-02-28T02:18:50.877Z,0.00
2023-02-28T02:19:51.057Z,0.00
2023-02-28T02:20:51.248Z,0.00
2023-02-28T02:21:51.397Z,0.00
2023-02-28T02:22:51.619Z,0.00
2023-02-28T02:23:51.764Z,0.00
2023-02-28T02:24:51.963Z,0.00
2023-02-28T02:25:52.118Z,0.00
2023-02-28T02:26:52.268Z,0.00
2023-02-28T02:27:52.452Z,0.00
2023-02-28T02:28:52.642Z,0.00
2023-02-28T02:29:52.807Z,0.00
2023-02-28T02:30:53.046Z,0.00
2023-02-28T02:31:53.399Z,0.00
2023-02-28T02:32:53.353Z,0.00
2023-02-28T02:33:53.533Z,0.00
2023-02-28T02:34:53.690Z,0.00
2023-02-28T02:35:53.872Z,0.00
2023-02-28T02:36:54.015Z,0.00
2023-02-28T02:37:54.202Z,0.00
2023-02-28T02:38:54.350Z,0.00
2023-02-28T02:39:54.500Z,0.00
2023-02-28T02:40:54.717Z,0.00
2023-02-28T02:41:54.868Z,0.00
2023-02-28T02:42:55.021Z,0.00
2023-02-28T02:43:55.218Z,0.00
2023-02-28T02:44:55.401Z,0.00
2023-02-28T02:45:55.567Z,0.00
2023-02-28T02:46:55.760Z,0.00
2023-02-28T02:47:55.927Z,0.00
2023-02-28T02:48:56.140Z,0.00
2023-02-28T02:49:56.251Z,0.00
2023-02-28T02:50:56.444Z,0.00
2023-02-28T02:51:56.624Z,0.00
2023-02-28T02:52:56.803Z,0.00
2023-02-28T02:53:56.951Z,0.00
2023-02-28T02:54:57.137Z,0.00
2023-02-28T02:55:57.298Z,0.00
2023-02-28T02:56:57.470Z,0.00
2023-02-28T02:57:57.643Z,0.00
2023-02-28T02:58:57.807Z,0.00
2023-02-28T02:59:57.978Z,0.00
2023-02-28T03:00:58.172Z,0.00
2023-02-28T03:01:58.337Z,0.00
2023-02-28T03:02:58.509Z,0.00
2023-02-28T03:03:58.684Z,0.00
2023-02-28T03:04:58.846Z,0.00
2023-02-28T03:05:59.046Z,0.00
2023-02-28T03:06:59.199Z,0.00
2023-02-28T03:07:59.382Z,0.00
2023-02-28T03:08:59.576Z,0.00
2023-02-28T03:09:59.724Z,0.00
2023-02-28T03:10:59.910Z,0.00
2023-02-28T03:12:00.088Z,0.00
2023-02-28T03:13:00.254Z,0.00
2023-02-28T03:14:00.416Z,0.00
2023-02-28T03:15:00.616Z,0.00
2023-02-28T03:16:00.846Z,0.00
2023-02-28T03:17:00.977Z,0.00
2023-02-28T03:18:01.149Z,0.00
2023-02-28T03:19:01.372Z,0.00
2023-02-28T03:20:01.521Z,0.00
2023-02-28T03:21:01.700Z,0.00
2023-02-28T03:22:01.880Z,0.00
2023-02-28T03:23:02.062Z,0.00
2023-02-28T03:24:02.248Z,0.00
2023-02-28T03:25:02.413Z,0.00
2023-02-28T03:26:02.602Z,0.00
2023-02-28T03:27:02.822Z,0.00
2023-02-28T03:28:02.997Z,0.00
2023-02-28T03:29:03.135Z,0.00
2023-02-28T03:30:03.316Z,0.00
2023-02-28T03:31:03.506Z,0.00
2023-02-28T03:32:03.828Z,0.00
2023-02-28T03:33:03.887Z,0.00
2023-02-28T03:34:04.032Z,0.00
2023-02-28T03:35:04.216Z,0.00
2023-02-28T03:36:04.395Z,0.00
2023-02-28T03:37:04.587Z,0.00
2023-02-28T03:38:04.719Z,0.00
2023-02-28T03:39:04.884Z,0.00
2023-02-28T03:40:05.073Z,0.00
2023-02-28T03:41:05.356Z,0.00
2023-02-28T03:42:05.451Z,0.00
2023-02-28T03:43:05.619Z,0.00
2023-02-28T03:44:05.809Z,0.00
2023-02-28T03:45:05.990Z,0.00
2023-02-28T03:46:06.224Z,0.00
2023-02-28T03:47:06.359Z,0.00
2023-02-28T03:48:06.515Z,0.00
2023-02-28T03:49:06.681Z,0.00
2023-02-28T03:50:06.871Z,0.00
2023-02-28T03:51:07.037Z,0.00
2023-02-28T03:52:07.233Z,0.00
2023-02-28T03:53:07.381Z,0.00
2023-02-28T03:54:07.572Z,0.00
2023-02-28T03:55:07.734Z,0.00
2023-02-28T03:56:07.928Z,0.00
2023-02-28T03:57:08.124Z,0.00
2023-02-28T03:58:08.280Z,0.00
2023-02-28T03:59:08.441Z,0.00
2023-02-28T04:00:08.632Z,0.00
2023-02-28T04:01:08.789Z,0.00
2023-02-28T04:02:08.995Z,0.00
2023-02-28T04:03:09.111Z,0.00
2023-02-28T04:04:09.335Z,0.00
2023-02-28T04:05:09.467Z,0.00
2023-02-28T04:06:09.645Z,0.00
2023-02-28T04:07:09.855Z,0.00
2023-02-28T04:08:10.014Z,0.00
2023-02-28T04:09:51.328Z,0.00
2023-02-28T04:10:51.477Z,0.00
2023-02-28T04:11:51.659Z,0.00
2023-02-28T04:12:51.825Z,0.00
2023-02-28T04:13:51.981Z,0.00
2023-02-28T04:14:52.131Z,0.00
2023-02-28T04:15:52.419Z,0.00
2023-02-28T04:16:52.509Z,0.00
2023-02-28T04:17:52.721Z,0.00
2023-02-28T04:18:52.875Z,0.00
2023-02-28T04:19:53.069Z,0.00
2023-02-28T04:20:53.264Z,0.00
2023-02-28T04:21:53.442Z,0.00
2023-02-28T04:22:53.630Z,0.00
2023-02-28T04:23:53.799Z,0.00
2023-02-28T04:24:53.955Z,0.00
2023-02-28T04:25:54.113Z,0.00
2023-02-28T04:26:54.273Z,0.00
2023-02-28T04:27:54.476Z,0.00
2023-02-28T04:28:54.634Z,0.00
2023-02-28T04:29:54.802Z,0.00
2023-02-28T04:30:54.981Z,0.00
2023-02-28T04:31:55.257Z,0.00
2023-02-28T04:32:55.326Z,0.00
2023-02-28T04:33:55.530Z,0.00
2023-02-28T04:34:55.669Z,0.00
2023-02-28T04:35:55.892Z,0.00
2023-02-28T04:37:11.922Z,0.00
2023-02-28T04:37:57.215Z,0.00
2023-02-28T04:38:56.385Z,0.00
2023-02-28T04:39:56.554Z,0.00
2023-02-28T04:40:56.707Z,0.00
2023-02-28T04:41:56.885Z,0.00
2023-02-28T04:42:57.093Z,0.00
2023-02-28T04:43:57.268Z,0.00
2023-02-28T04:44:57.449Z,0.00
2023-02-28T04:45:57.714Z,0.00
2023-02-28T04:46:57.805Z,0.00
2023-02-28T04:47:58.007Z,0.00
2023-02-28T04:48:58.149Z,0.00
2023-02-28T04:49:58.345Z,0.00
2023-02-28T04:50:58.503Z,0.00
2023-02-28T04:51:58.710Z,0.00
2023-02-28T04:52:58.894Z,0.00
2023-02-28T04:53:59.064Z,0.00
2023-02-28T04:54:59.249Z,0.00
2023-02-28T04:55:59.424Z,0.00
2023-02-28T04:56:59.591Z,0.00
2023-02-28T04:57:59.784Z,0.00
2023-02-28T04:58:59.942Z,0.00
2023-02-28T05:00:00.153Z,0.00
2023-02-28T05:01:00.274Z,0.00
2023-02-28T05:02:00.522Z,0.00
2023-02-28T05:03:00.653Z,0.00
2023-02-28T05:04:00.825Z,0.00
2023-02-28T05:05:01.009Z,0.00
2023-02-28T05:06:01.152Z,0.00
2023-02-28T05:07:01.344Z,0.00
2023-02-28T05:08:01.518Z,0.00
2023-02-28T05:09:01.667Z,0.00
2023-02-28T05:10:01.856Z,0.00
2023-02-28T05:11:02.033Z,0.00
2023-02-28T05:12:02.220Z,0.00
2023-02-28T05:13:02.423Z,0.00
2023-02-28T05:14:02.606Z,0.00
2023-02-28T05:15:02.775Z,0.00
2023-02-28T05:16:03.030Z,0.00
2023-02-28T05:17:03.155Z,0.00
2023-02-28T05:18:03.366Z,0.00
2023-02-28T05:19:03.606Z,0.00
2023-02-28T05:20:14.651Z,0.00
2023-02-28T05:21:04.889Z,0.00
2023-02-28T05:22:04.066Z,0.00
2023-02-28T05:23:04.255Z,0.00
2023-02-28T05:24:04.406Z,0.00
2023-02-28T05:25:04.560Z,0.00
2023-02-28T05:26:04.736Z,0.00
2023-02-28T05:27:04.896Z,0.00
2023-02-28T05:28:05.034Z,0.00
2023-02-28T05:29:05.225Z,0.00
2023-02-28T05:30:05.428Z,0.00
2023-02-28T05:31:05.653Z,0.00
2023-02-28T05:32:05.981Z,0.00
2023-02-28T05:33:05.897Z,0.00
2023-02-28T05:34:06.110Z,0.00
2023-02-28T05:35:06.252Z,0.00
2023-02-28T05:36:06.454Z,0.00
2023-02-28T05:37:06.605Z,0.00
2023-02-28T05:38:06.786Z,0.00
2023-02-28T05:39:06.936Z,4.00
2023-02-28T05:40:07.146Z,4.00
2023-02-28T05:41:07.302Z,0.00
2023-02-28T05:42:07.481Z,4.00
2023-02-28T05:43:07.631Z,4.00
2023-02-28T05:44:07.838Z,0.00
2023-02-28T05:45:08.036Z,4.00
2023-02-28T05:46:08.197Z,4.00
2023-02-28T05:47:08.325Z,4.00
2023-02-28T05:48:08.532Z,8.00
2023-02-28T05:49:08.894Z,8.00
2023-02-28T05:50:08.839Z,8.00
2023-02-28T05:51:08.999Z,8.00
2023-02-28T05:52:09.190Z,12.00
2023-02-28T05:53:09.384Z,12.00
2023-02-28T05:54:09.523Z,12.00
2023-02-28T05:55:09.681Z,12.00
2023-02-28T05:56:09.870Z,16.00
2023-02-28T05:57:18.929Z,16.00
2023-02-28T05:58:11.259Z,20.00
2023-02-28T05:59:10.374Z,20.00
2023-02-28T06:00:10.551Z,24.00
2023-02-28T06:01:10.703Z,24.00
2023-02-28T06:02:10.887Z,28.00
2023-02-28T06:03:11.100Z,32.00
2023-02-28T06:04:22.223Z,36.00
2023-02-28T06:05:12.374Z,32.00
2023-02-28T06:06:11.567Z,36.00
2023-02-28T06:07:11.758Z,40.00
2023-02-28T06:08:11.918Z,40.00
2023-02-28T06:09:12.087Z,44.00
2023-02-28T06:10:12.257Z,48.00
2023-02-28T06:11:12.421Z,52.00
2023-02-28T06:12:12.616Z,56.00
2023-02-28T06:13:12.769Z,56.00
2023-02-28T06:14:12.931Z,60.00
2023-02-28T06:15:13.089Z,64.00
2023-02-28T06:16:13.333Z,68.00
2023-02-28T06:17:13.434Z,72.00
2023-02-28T06:18:13.605Z,72.00
2023-02-28T06:19:13.770Z,76.00
2023-02-28T06:20:13.978Z,76.00
2023-02-28T06:21:14.126Z,80.00
2023-02-28T06:22:14.289Z,84.00
2023-02-28T06:23:14.451Z,88.00
2023-02-28T06:24:14.620Z,92.00
2023-02-28T06:25:14.790Z,96.00
2023-02-28T06:26:14.976Z,96.00
2023-02-28T06:27:15.152Z,100.00
2023-02-28T06:28:15.330Z,104.00
2023-02-28T06:29:15.495Z,104.00
2023-02-28T06:30:15.685Z,108.00
2023-02-28T06:31:15.861Z,112.00
2023-02-28T06:32:16.073Z,112.00
2023-02-28T06:33:16.189Z,116.00
2023-02-28T06:34:16.366Z,120.00
2023-02-28T06:35:16.523Z,120.00
2023-02-28T06:36:16.715Z,124.00
2023-02-28T06:37:16.928Z,128.00
2023-02-28T06:38:17.052Z,132.00
2023-02-28T06:39:17.205Z,136.00
2023-02-28T06:40:17.386Z,132.00
2023-02-28T06:41:17.559Z,136.00
2023-02-28T06:42:17.755Z,144.00
2023-02-28T06:43:17.911Z,144.00
2023-02-28T06:44:18.098Z,144.00
2023-02-28T06:45:18.246Z,152.00
2023-02-28T06:46:18.491Z,156.00
2023-02-28T06:47:18.628Z,156.00
2023-02-28T06:48:18.787Z,160.00
2023-02-28T06:49:18.930Z,160.00
2023-02-28T06:50:19.134Z,168.00
2023-02-28T06:51:19.297Z,172.00
2023-02-28T06:52:19.473Z,172.00
2023-02-28T06:53:19.629Z,180.00
2023-02-28T06:54:19.817Z,180.00
2023-02-28T06:55:19.986Z,188.00
2023-02-28T06:56:20.146Z,188.00
2023-02-28T06:57:20.299Z,192.00
2023-02-28T06:58:20.469Z,200.00
2023-02-28T06:59:20.656Z,200.00
2023-02-28T07:00:20.844Z,208.00
2023-02-28T07:01:21.086Z,212.00
2023-02-28T07:02:21.178Z,216.00
2023-02-28T07:03:21.351Z,224.00
2023-02-28T07:04:21.801Z,232.00
2023-02-28T07:05:21.712Z,236.00
2023-02-28T07:06:21.877Z,240.00
2023-02-28T07:07:22.059Z,240.00
2023-02-28T07:08:22.269Z,244.00
2023-02-28T07:09:22.406Z,248.00
2023-02-28T07:10:22.598Z,252.00
2023-02-28T07:11:22.754Z,256.00
2023-02-28T07:12:22.937Z,256.00
2023-02-28T07:13:23.108Z,260.00
2023-02-28T07:14:23.299Z,264.00
2023-02-28T07:15:23.463Z,268.00
2023-02-28T07:16:23.666Z,276.00
2023-02-28T07:17:23.817Z,280.00
2023-02-28T07:18:23.998Z,284.00
2023-02-28T07:19:24.160Z,284.00
2023-02-28T07:20:24.336Z,292.00
2023-02-28T07:21:24.506Z,292.00
2023-02-28T07:22:24.676Z,296.00
2023-02-28T07:23:24.845Z,304.00
2023-02-28T07:24:25.034Z,308.00
2023-02-28T07:25:25.195Z,312.00
2023-02-28T07:26:25.364Z,312.00
2023-02-28T07:27:25.534Z,320.00
2023-02-28T07:28:25.706Z,328.00
2023-02-28T07:29:25.897Z,332.00
2023-02-28T07:30:26.045Z,336.00
2023-02-28T07:31:26.273Z,344.00
2023-02-28T07:32:26.454Z,364.00
2023-02-28T07:33:26.608Z,372.00
2023-02-28T07:34:26.746Z,380.00
2023-02-28T07:35:26.943Z,388.00
2023-02-28T07:36:27.099Z,396.00
2023-02-28T07:37:27.261Z,416.00
2023-02-28T07:38:27.460Z,432.00
2023-02-28T07:39:27.614Z,432.00
2023-02-28T07:40:27.904Z,468.00
2023-02-28T07:41:28.219Z,540.00
2023-02-28T07:42:28.161Z,616.00
2023-02-28T07:43:28.326Z,688.00
2023-02-28T07:44:28.502Z,764.00
2023-02-28T07:45:28.675Z,808.00
2023-02-28T07:46:30.668Z,808.00
2023-02-28T07:47:29.035Z,808.00
2023-02-28T07:48:29.195Z,780.00
2023-02-28T07:49:29.377Z,784.00
2023-02-28T07:50:29.550Z,788.00
2023-02-28T07:51:29.934Z,816.00
2023-02-28T07:52:29.918Z,776.00
2023-02-28T07:53:30.079Z,760.00
2023-02-28T07:54:30.259Z,744.00
2023-02-28T07:55:30.427Z,784.00
2023-02-28T07:56:30.900Z,832.00
2023-02-28T07:57:30.811Z,904.00
2023-02-28T07:58:30.979Z,968.00
2023-02-28T07:59:32.323Z,1020.00
2023-02-28T08:00:31.347Z,1016.00
2023-02-28T08:01:31.936Z,956.00
2023-02-28T08:02:31.703Z,876.00
2023-02-28T08:03:31.873Z,816.00
2023-02-28T08:04:32.077Z,768.00
2023-02-28T08:05:32.232Z,740.00
2023-02-28T08:06:32.400Z,724.00
2023-02-28T08:07:32.619Z,720.00
2023-02-28T08:08:32.749Z,736.00
2023-02-28T08:09:32.926Z,776.00
2023-02-28T08:10:33.117Z,936.00
2023-02-28T08:11:33.286Z,1160.00
2023-02-28T08:12:33.472Z,912.00
2023-02-28T08:13:33.654Z,788.00
2023-02-28T08:14:33.824Z,796.00
2023-02-28T08:15:34.005Z,804.00
2023-02-28T08:16:34.231Z,808.00
2023-02-28T08:17:35.458Z,820.00
2023-02-28T08:18:34.529Z,836.00
2023-02-28T08:19:34.711Z,852.00
2023-02-28T08:20:34.882Z,864.00
2023-02-28T08:21:35.072Z,872.00
2023-02-28T08:22:35.244Z,880.00
2023-02-28T08:23:35.402Z,888.00
2023-02-28T08:24:35.584Z,884.00
2023-02-28T08:25:35.751Z,888.00
2023-02-28T08:26:35.951Z,892.00
2023-02-28T08:27:36.148Z,896.00
2023-02-28T08:28:36.268Z,896.00
2023-02-28T08:29:36.434Z,888.00
2023-02-28T08:30:36.619Z,888.00
2023-02-28T08:31:36.869Z,884.00
2023-02-28T08:32:37.112Z,884.00
2023-02-28T08:33:37.134Z,888.00
2023-02-28T08:34:37.295Z,900.00
2023-02-28T08:35:37.515Z,912.00
2023-02-28T08:36:37.662Z,928.00
2023-02-28T08:37:37.839Z,936.00
2023-02-28T08:38:38.010Z,956.00
2023-02-28T08:39:38.165Z,980.00
2023-02-28T08:40:38.328Z,1000.00
2023-02-28T08:41:38.508Z,1024.00
2023-02-28T08:42:38.672Z,1052.00
2023-02-28T08:43:38.858Z,1072.00
2023-02-28T08:44:39.012Z,1116.00
2023-02-28T08:45:39.172Z,1160.00
2023-02-28T08:46:39.346Z,1312.00
2023-02-28T08:47:39.528Z,2196.00
2023-02-28T08:48:39.677Z,1472.00
2023-02-28T08:49:39.904Z,1160.00
2023-02-28T08:50:40.045Z,1148.00
2023-02-28T08:51:40.203Z,1140.00
2023-02-28T08:52:40.361Z,1144.00
2023-02-28T08:53:40.570Z,1148.00
2023-02-28T08:54:40.738Z,1144.00
2023-02-28T08:55:40.884Z,1144.00
2023-02-28T08:56:41.033Z,1148.00
2023-02-28T08:57:41.213Z,1152.00
2023-02-28T08:58:41.396Z,1156.00
2023-02-28T08:59:41.564Z,1164.00
2023-02-28T09:00:41.950Z,1160.00
2023-02-28T09:01:41.955Z,1168.00
2023-02-28T09:02:42.053Z,1176.00
2023-02-28T09:03:42.264Z,1184.00
2023-02-28T09:04:42.418Z,1204.00
2023-02-28T09:05:42.609Z,1216.00
2023-02-28T09:06:42.780Z,1224.00
2023-02-28T09:07:42.931Z,1232.00
2023-02-28T09:08:43.110Z,1248.00
2023-02-28T09:09:43.269Z,1264.00
2023-02-28T09:10:43.446Z,1272.00
2023-02-28T09:11:43.635Z,1288.00
2023-02-28T09:12:43.786Z,1312.00
2023-02-28T09:13:43.944Z,1332.00
2023-02-28T09:14:44.096Z,2852.00
2023-02-28T09:15:44.267Z,2848.00
2023-02-28T09:16:44.479Z,2880.00
2023-02-28T09:17:46.959Z,2952.00
2023-02-28T09:18:44.793Z,2956.00
2023-02-28T09:19:44.962Z,2968.00
2023-02-28T09:20:45.130Z,2996.00
2023-02-28T09:21:45.340Z,3020.00
2023-02-28T09:22:45.483Z,2708.00
2023-02-28T09:23:45.664Z,3052.00
2023-02-28T09:24:45.920Z,3084.00
2023-02-28T09:25:46.019Z,3116.00
2023-02-28T09:27:01.732Z,3152.00
2023-02-28T09:27:47.376Z,3196.00
2023-02-28T09:28:46.566Z,3240.00
2023-02-28T09:29:46.733Z,3280.00
2023-02-28T09:30:46.969Z,3304.00
2023-02-28T09:31:47.093Z,3320.00
2023-02-28T09:32:48.232Z,3340.00
2023-02-28T09:33:47.405Z,3372.00
2023-02-28T09:34:47.565Z,2372.00
2023-02-28T09:35:47.768Z,3396.00
2023-02-28T09:36:48.646Z,3420.00
2023-02-28T09:37:48.044Z,3444.00
2023-02-28T09:38:49.685Z,3508.00
2023-02-28T09:39:48.399Z,3492.00
2023-02-28T09:40:48.558Z,2560.00
2023-02-28T09:41:48.773Z,16832.00
2023-02-28T09:42:48.912Z,6548.00
2023-02-28T09:43:49.067Z,12576.00
2023-02-28T09:44:49.230Z,13248.00
2023-02-28T09:45:49.442Z,15104.00
2023-02-28T09:46:49.574Z,9136.00
2023-02-28T09:47:49.755Z,16352.00
2023-02-28T09:48:49.908Z,15300.00
2023-02-28T09:49:50.080Z,17536.00
2023-02-28T09:50:50.237Z,14324.00
2023-02-28T09:51:50.489Z,3508.00
2023-02-28T09:52:50.620Z,2844.00
2023-02-28T09:53:56.632Z,3204.00
2023-02-28T09:54:51.964Z,3384.00
2023-02-28T09:55:51.134Z,3356.00
2023-02-28T09:56:51.301Z,3980.00
2023-02-28T09:57:51.482Z,7632.00
2023-02-28T09:58:51.642Z,8048.00
2023-02-28T09:59:51.836Z,6272.00
2023-02-28T10:00:51.979Z,5176.00
2023-02-28T10:01:52.225Z,2940.00
2023-02-28T10:02:52.315Z,2800.00
2023-02-28T10:03:52.477Z,2704.00
2023-02-28T10:04:52.818Z,2704.00
2023-02-28T10:05:52.852Z,2812.00
2023-02-28T10:06:52.984Z,2788.00
2023-02-28T10:07:53.167Z,2776.00
2023-02-28T10:08:53.341Z,2736.00
2023-02-28T10:09:53.589Z,2696.00
2023-02-28T10:10:53.678Z,2668.00
2023-02-28T10:11:55.983Z,2640.00
2023-02-28T10:12:54.023Z,2640.00
2023-02-28T10:13:54.207Z,2644.00
2023-02-28T10:14:54.372Z,2676.00
2023-02-28T10:15:54.578Z,2676.00
2023-02-28T10:16:54.700Z,2704.00
2023-02-28T10:17:55.777Z,2712.00
2023-02-28T10:18:56.094Z,2728.00
2023-02-28T10:19:55.236Z,2744.00
2023-02-28T10:20:55.400Z,2764.00
2023-02-28T10:21:55.588Z,2788.00
2023-02-28T10:22:55.761Z,2812.00
2023-02-28T10:23:55.931Z,2840.00
2023-02-28T10:24:56.110Z,2868.00
2023-02-28T10:25:56.280Z,2920.00
2023-02-28T10:26:56.440Z,3112.00
2023-02-28T10:27:56.603Z,3472.00
2023-02-28T10:28:56.768Z,3540.00
2023-02-28T10:29:56.956Z,4264.00
2023-02-28T10:30:57.168Z,4708.00
2023-02-28T10:31:57.292Z,5584.00
2023-02-28T10:32:57.543Z,15872.00
2023-02-28T10:33:57.632Z,30144.00
2023-02-28T10:34:57.827Z,30112.00
2023-02-28T10:35:58.116Z,24000.00
2023-02-28T10:36:58.168Z,9776.00
2023-02-28T10:37:58.336Z,4724.00
2023-02-28T10:38:58.510Z,3452.00
2023-02-28T10:39:58.696Z,3252.00
2023-02-28T10:40:58.830Z,3216.00
2023-02-28T10:41:59.001Z,3256.00
2023-02-28T10:42:59.159Z,3216.00
2023-02-28T10:43:59.330Z,3124.00
2023-02-28T10:44:59.505Z,3116.00
2023-02-28T10:45:59.773Z,3084.00
2023-02-28T10:46:59.847Z,3076.00
2023-02-28T10:48:00.066Z,3080.00
2023-02-28T10:49:00.198Z,3096.00
2023-02-28T10:50:00.386Z,3124.00
2023-02-28T10:51:00.504Z,3164.00
2023-02-28T10:52:00.677Z,3208.00
2023-02-28T10:53:00.853Z,3240.00
2023-02-28T10:54:02.350Z,3276.00
2023-02-28T10:55:01.205Z,3292.00
2023-02-28T10:56:01.380Z,3280.00
2023-02-28T10:57:01.549Z,3284.00
2023-02-28T10:58:01.712Z,3284.00
2023-02-28T10:59:01.885Z,3308.00
2023-02-28T11:00:02.056Z,3328.00
2023-02-28T11:01:02.219Z,3364.00
2023-02-28T11:02:02.433Z,3360.00
2023-02-28T11:03:02.535Z,3352.00
2023-02-28T11:04:02.725Z,3340.00
2023-02-28T11:05:02.935Z,3332.00
2023-02-28T11:06:03.056Z,3344.00
2023-02-28T11:07:03.219Z,3332.00
2023-02-28T11:08:03.393Z,3372.00
2023-02-28T11:09:03.602Z,3352.00
2023-02-28T11:10:03.759Z,3328.00
2023-02-28T11:11:03.913Z,2844.00
2023-02-28T11:12:04.088Z,3168.00
2023-02-28T11:13:04.255Z,3328.00
2023-02-28T11:14:04.483Z,3352.00
2023-02-28T11:15:04.622Z,3356.00
2023-02-28T11:16:04.848Z,3360.00
2023-02-28T11:17:04.916Z,3360.00
2023-02-28T11:18:05.088Z,3364.00
2023-02-28T11:19:05.268Z,3352.00
2023-02-28T11:20:05.430Z,3360.00
2023-02-28T11:21:05.597Z,3388.00
2023-02-28T11:22:05.795Z,3396.00
2023-02-28T11:23:05.949Z,3384.00
2023-02-28T11:24:06.142Z,3428.00
2023-02-28T11:25:06.287Z,3460.00
2023-02-28T11:26:06.459Z,3476.00
2023-02-28T11:27:06.638Z,3484.00
2023-02-28T11:28:06.810Z,3504.00
2023-02-28T11:29:06.999Z,3532.00
2023-02-28T11:30:07.173Z,3544.00
2023-02-28T11:31:07.352Z,3572.00
2023-02-28T11:32:07.515Z,3588.00
2023-02-28T11:33:07.738Z,3596.00
2023-02-28T11:34:07.851Z,3612.00
2023-02-28T11:35:08.021Z,3628.00
2023-02-28T11:36:08.254Z,3660.00
2023-02-28T11:37:08.349Z,3680.00
2023-02-28T11:38:08.543Z,3696.00
2023-02-28T11:39:08.676Z,3720.00
2023-02-28T11:40:08.839Z,3736.00
2023-02-28T11:41:09.013Z,3748.00
2023-02-28T11:42:09.181Z,3780.00
2023-02-28T11:43:09.366Z,3796.00
2023-02-28T11:44:09.532Z,3824.00
2023-02-28T11:45:09.685Z,3840.00
2023-02-28T11:46:09.890Z,3844.00
2023-02-28T11:47:10.045Z,3880.00
2023-02-28T11:48:10.220Z,3900.00
2023-02-28T11:49:10.367Z,3920.00
2023-02-28T11:50:10.553Z,3932.00
2023-02-28T11:51:10.719Z,3940.00
2023-02-28T11:52:10.890Z,3972.00
2023-02-28T11:53:11.056Z,3996.00
2023-02-28T11:54:11.222Z,4016.00
2023-02-28T11:55:11.384Z,4048.00
2023-02-28T11:56:11.551Z,4084.00
2023-02-28T11:57:11.724Z,4132.00
2023-02-28T11:58:11.906Z,4180.00
2023-02-28T11:59:12.072Z,4232.00
2023-02-28T12:00:12.244Z,4272.00
2023-02-28T12:01:12.412Z,4340.00
2023-02-28T12:02:12.667Z,4416.00
2023-02-28T12:03:12.769Z,4484.00
2023-02-28T12:04:12.911Z,4544.00
2023-02-28T12:05:13.099Z,4560.00
2023-02-28T12:06:13.238Z,4560.00
2023-02-28T12:07:13.435Z,4588.00
2023-02-28T12:08:13.585Z,4656.00
2023-02-28T12:09:13.749Z,4708.00
2023-02-28T12:10:14.003Z,4740.00
2023-02-28T12:11:14.096Z,4756.00
2023-02-28T12:12:14.271Z,4772.00
2023-02-28T12:13:14.424Z,4800.00
2023-02-28T12:14:14.605Z,4824.00
2023-02-28T12:15:14.772Z,4868.00
2023-02-28T12:16:14.942Z,4912.00
2023-02-28T12:17:15.092Z,4940.00
2023-02-28T12:18:15.281Z,4964.00
2023-02-28T12:19:15.448Z,4972.00
2023-02-28T12:20:15.614Z,4972.00
2023-02-28T12:21:15.787Z,4956.00
2023-02-28T12:22:15.948Z,4956.00
2023-02-28T12:23:16.124Z,4980.00
2023-02-28T12:24:16.307Z,5032.00
2023-02-28T12:25:16.481Z,5076.00
2023-02-28T12:26:16.653Z,5116.00
2023-02-28T12:27:16.827Z,5152.00
2023-02-28T12:28:16.990Z,5392.00
2023-02-28T12:29:17.165Z,5704.00
2023-02-28T12:30:17.327Z,5916.00
2023-02-28T12:31:17.516Z,6052.00
2023-02-28T12:32:17.713Z,6280.00
2023-02-28T12:33:17.843Z,6568.00
2023-02-28T12:34:18.039Z,6852.00
2023-02-28T12:35:18.186Z,6752.00
2023-02-28T12:36:18.349Z,6320.00
2023-02-28T12:37:18.513Z,6168.00
2023-02-28T12:38:18.683Z,6300.00
2023-02-28T12:39:18.882Z,6784.00
2023-02-28T12:40:18.999Z,7292.00
2023-02-28T12:41:19.156Z,7964.00
2023-02-28T12:42:19.346Z,9888.00
2023-02-28T12:43:19.528Z,12968.00
2023-02-28T12:44:19.685Z,17664.00
2023-02-28T12:45:20.016Z,24640.00
2023-02-28T12:46:20.199Z,29280.00